Flight Track Log - Related Links

Times and Time Zones

All times are in EDT time to prevent confusion due to time zone crossing. See the UAL258 flight status page for this flight to view local times or setup timezone preferences in your user account.

Time Position Orientation Groundspeed Altitude Reporting Facility
EDT Latitude Longitude Course Direction KTS MPH feet Rate Location/Type
Thu 08:55:16 AM 42.0000 -87.9833 261° West 191 220 2,600  Level Chicago TRACON
Thu 08:56:10 AM 41.9833 -88.0500 251° West 235 270 4,100 2,016 Climbing Chicago TRACON
Thu 08:57:00 AM 41.9309 -88.3455 255° West  Level FlightAware Approximate
Thu 08:57:24 AM 41.9853 -88.1675 271° West 268 308 6,900  Level Chicago Center
Thu 08:58:00 AM 41.9134 -88.4943 261° West  Level FlightAware Approximate
Thu 08:58:26 AM 41.9775 -88.2869 265° West 269 310 11,100  Level Chicago Center
Thu 08:59:00 AM 41.8959 -88.6441 261° West  Level FlightAware Approximate
Thu 08:59:28 AM 41.9603 -88.3961 258° West 305 351 12,400  Level Chicago Center
Thu 09:00:00 AM 41.8783 -88.7938 261° West  Level FlightAware Approximate
Thu 09:00:30 AM 41.9369 -88.5142 255° West 329 379 15,000  Level Chicago Center
Thu 09:01:31 AM 41.9164 -88.6353 257° West 336 387 16,700 1,756 Climbing Chicago Center
Thu 09:02:33 AM 41.8917 -88.7633 256° West 353 406 18,600 1,935 Climbing Chicago Center
Thu 09:03:35 AM 41.8597 -88.9211 255° West 368 423 20,700 1,839 Climbing Chicago Center
Thu 09:04:37 AM 41.8319 -89.0567 255° West 378 435 22,400 1,548 Climbing Chicago Center
Thu 09:05:39 AM 41.8233 -89.1967 265° West 381 438 23,900 1,355 Climbing Chicago Center
Thu 09:06:41 AM 41.8144 -89.3389 265° West 384 442 25,200 1,210 Climbing Chicago Center
Thu 09:07:43 AM 41.8044 -89.4836 265° West 390 449 26,400 1,161 Climbing Chicago Center
Thu 09:08:45 AM 41.7919 -89.6547 264° West 403 464 27,600 1,113 Climbing Chicago Center
Thu 09:09:47 AM 41.7819 -89.8064 265° West 409 471 28,700 968 Climbing Chicago Center
Thu 09:10:49 AM 41.7706 -89.9606 264° West 415 478 29,600 871 Climbing Chicago Center
Thu 09:11:51 AM 41.7592 -90.1169 264° West 422 486 30,500 823 Climbing Chicago Center
Thu 09:12:53 AM 41.7478 -90.2758 265° West 428 493 31,300 968 Climbing Chicago Center
Thu 09:13:55 AM 41.7317 -90.4719 264° West 439 505 32,500 1,258 Climbing Chicago Center
Thu 09:14:57 AM 41.7186 -90.6344 264° West 428 493 33,900 1,258 Climbing Chicago Center
Thu 09:15:59 AM 41.7058 -90.7886 264° West 421 484 35,100 1,016 Climbing Chicago Center
Thu 09:17:01 AM 41.6939 -90.9375 264° West 409 471 36,000 435 Climbing Chicago Center
Thu 09:18:03 AM 41.6811 -91.0869 264° West 407 468 36,000  Level Chicago Center
Thu 09:19:05 AM 41.6692 -91.2381 264° West 410 472 36,000  Level Chicago Center
Thu 09:20:07 AM 41.6564 -91.3889 264° West 409 471 36,000  Level Chicago Center
Thu 09:21:09 AM 41.6397 -91.5700 263° West 412 474 36,000  Level Chicago Center
Thu 09:22:11 AM 41.6272 -91.7206 264° West 410 472 36,000  Level Chicago Center
Thu 09:23:14 AM 41.6133 -91.8711 263° West 410 472 36,000  Level Chicago Center
Thu 09:24:16 AM 41.5983 -92.0203 262° West 409 471 36,000  Level Chicago Center
Thu 09:25:18 AM 41.5839 -92.1697 263° West 408 470 36,000  Level Chicago Center
Thu 09:26:20 AM 41.5681 -92.3572 264° West 415 478 36,000  Level Chicago Center
Thu 09:27:22 AM 41.5542 -92.5097 263° West 418 481 36,000  Level Chicago Center
Thu 09:28:24 AM 41.5383 -92.6603 262° West 414 476 36,000  Level Chicago Center
Thu 09:28:56 AM 41.5328 -92.7200 263° West 416 479 36,000  Level Minneapolis Center
Thu 09:29:58 AM 41.5147 -92.9053 263° West 421 484 36,000  Level Minneapolis Center
Thu 09:31:00 AM 41.4989 -93.0575 262° West 421 484 36,000  Level Minneapolis Center
Thu 09:32:01 AM 41.4833 -93.2119 262° West 422 486 36,000  Level Minneapolis Center
Thu 09:33:03 AM 41.4642 -93.3953 262° West 422 486 36,000  Level Minneapolis Center
Thu 09:34:04 AM 41.4486 -93.5467 262° West 419 482 36,000  Level Minneapolis Center
Thu 09:35:06 AM 41.4311 -93.6994 261° West 420 483 36,000  Level Minneapolis Center
Thu 09:36:07 AM 41.4053 -93.8533 257° West 427 491 36,000  Level Minneapolis Center
Thu 09:37:21 AM 41.3811 -94.0072 258° West 428 493 36,000  Level Minneapolis Center
Thu 09:38:23 AM 41.3444 -94.2211 257° West 430 495 36,000  Level Minneapolis Center
Thu 09:39:24 AM 41.3181 -94.3744 257° West 427 491 36,000  Level Minneapolis Center
Thu 09:40:26 AM 41.2911 -94.5308 257° West 430 495 36,000  Level Minneapolis Center
Thu 09:41:28 AM 41.2656 -94.6881 258° West 434 499 36,000  Level Minneapolis Center
Thu 09:42:29 AM 41.2394 -94.8436 257° West 434 499 36,000  Level Minneapolis Center
Thu 09:43:31 AM 41.2119 -94.9994 257° West 434 499 36,000  Level Minneapolis Center
Thu 09:44:32 AM 41.1844 -95.1556 257° West 434 499 36,000  Level Minneapolis Center
Thu 09:45:34 AM 41.1572 -95.3106 257° West 431 496 36,000  Level Minneapolis Center
Thu 09:46:36 AM 41.1289 -95.4658 256° West 432 497 36,000  Level Minneapolis Center
Thu 09:47:37 AM 41.0939 -95.6528 256° West 433 498 36,000  Level Minneapolis Center
Thu 09:48:39 AM 41.0650 -95.8097 256° West 433 498 36,000  Level Minneapolis Center
Thu 09:49:41 AM 41.0367 -95.9669 257° West 434 499 36,000  Level Minneapolis Center
Thu 09:50:42 AM 41.0083 -96.1236 257° West 434 499 36,000  Level Minneapolis Center
Thu 09:51:44 AM 40.9794 -96.2775 256° West 430 495 36,000  Level Minneapolis Center
Thu 09:52:46 AM 40.9511 -96.4331 256° West 432 497 36,000  Level Minneapolis Center
Thu 09:53:47 AM 40.9219 -96.5853 256° West 428 493 36,000  Level Minneapolis Center
Thu 09:54:49 AM 40.8925 -96.7389 256° West 429 494 36,000  Level Minneapolis Center
Thu 09:55:51 AM 40.8633 -96.8925 256° West 430 495 36,000  Level Minneapolis Center
Thu 09:56:52 AM 40.8336 -97.0467 256° West 432 497 36,000  Level Minneapolis Center
Thu 09:57:54 AM 40.7981 -97.2297 256° West 430 495 36,000  Level Minneapolis Center
Thu 09:58:55 AM 40.7664 -97.3856 255° West 428 493 36,000  Level Minneapolis Center
Thu 09:59:57 AM 40.7358 -97.5369 255° West 427 491 36,000  Level Minneapolis Center
Thu 10:00:59 AM 40.7069 -97.6892 256° West 427 491 36,000  Level Minneapolis Center
Thu 10:02:00 AM 40.6772 -97.8408 256° West 426 490 36,000  Level Minneapolis Center
Thu 10:03:02 AM 40.6458 -97.9928 255° West 428 493 36,000  Level Minneapolis Center
Thu 10:04:04 AM 40.6142 -98.1450 255° West 429 494 36,000  Level Minneapolis Center
Thu 10:05:05 AM 40.5833 -98.2986 255° West 431 496 36,000 49 Level Minneapolis Center
Thu 10:06:07 AM 40.5514 -98.4522 255° West 432 497 36,100  Climbing Minneapolis Center
Thu 10:07:09 AM 40.5200 -98.6042 255° West 430 495 36,000 -49 Descending Minneapolis Center
Thu 10:08:10 AM 40.4881 -98.7561 255° West 428 493 36,000  Level Minneapolis Center
Thu 10:09:12 AM 40.4558 -98.9075 254° West 429 494 36,000  Level Minneapolis Center
Thu 10:10:14 AM 40.4175 -99.0861 254° West 424 488 36,000  Level Minneapolis Center
Thu 10:10:53 AM 40.3986 -99.1747 254° West 421 484 36,000  Level Denver Center
Thu 10:11:55 AM 40.3672 -99.3200 254° West 414 476 36,000  Level Denver Center
Thu 10:12:56 AM 40.3358 -99.4667 254° West 416 479 36,000  Level Denver Center
Thu 10:13:58 AM 40.3033 -99.6133 254° West 417 480 36,000  Level Denver Center
Thu 10:15:00 AM 40.2719 -99.7578 254° West 415 478 36,000  Level Denver Center
Thu 10:16:01 AM 40.2350 -99.9236 254° West 416 479 36,000  Level Denver Center
Thu 10:17:03 AM 40.2039 -100.0625 254° West 415 478 36,000  Level Denver Center
Thu 10:18:05 AM 40.1681 -100.2247 254° West 416 479 36,000  Level Denver Center
Thu 10:19:07 AM 40.1358 -100.3639 253° West 415 478 36,000  Level Denver Center
Thu 10:20:09 AM 40.0994 -100.5253 254° West 416 479 36,000  Level Denver Center
Thu 10:21:11 AM 40.0675 -100.6650 253° West 418 481 36,000  Level Denver Center
Thu 10:22:12 AM 40.0350 -100.8044 253° West 419 482 36,000  Level Denver Center
Thu 10:23:14 AM 39.9978 -100.9678 253° West 419 482 36,000  Level Denver Center
Thu 10:24:28 AM 39.9650 -101.1056 253° West 416 479 36,000  Level Denver Center
Thu 10:25:30 AM 39.9275 -101.2658 253° West 414 476 36,000  Level Denver Center
Thu 10:26:33 AM 39.8903 -101.4253 253° West 413 475 36,000  Level Denver Center
Thu 10:27:35 AM 39.8519 -101.5850 253° West 413 475 36,000  Level Denver Center
Thu 10:28:49 AM 39.8183 -101.7225 252° West 415 478 36,000  Level Denver Center
Thu 10:29:51 AM 39.7750 -101.9033 253° West 410 472 36,000  Level Denver Center
Thu 10:30:53 AM 39.7361 -102.0611 252° West 410 472 36,000  Level Denver Center
Thu 10:31:55 AM 39.7039 -102.1942 253° West 403 464 36,000  Level Denver Center
Thu 10:32:57 AM 39.6650 -102.3492 252° West 404 465 36,000  Level Denver Center
Thu 10:33:59 AM 39.6322 -102.4811 252° West 403 464 36,000  Level Denver Center
Thu 10:35:01 AM 39.5994 -102.6153 252° West 406 467 36,000  Level Denver Center
Thu 10:36:03 AM 39.5614 -102.7636 252° West 406 467 36,000 48 Level Denver Center
Thu 10:37:05 AM 39.5222 -102.9194 252° West 406 467 36,100  Climbing Denver Center
Thu 10:38:07 AM 39.4894 -103.0519 252° West 406 467 36,000 -48 Descending Denver Center
Thu 10:39:09 AM 39.4500 -103.2078 252° West 407 468 36,000  Level Denver Center
Thu 10:40:11 AM 39.4161 -103.3383 251° West 402 463 36,000  Level Denver Center
Thu 10:41:13 AM 39.3761 -103.4911 251° West 402 463 36,000  Level Denver Center
Thu 10:42:15 AM 39.3428 -103.6211 252° West 399 459 36,000  Level Denver Center
Thu 10:43:17 AM 39.3025 -103.7728 251° West 402 463 36,000  Level Denver Center
Thu 10:44:20 AM 39.2689 -103.9042 252° West 402 463 36,000  Level Denver Center
Thu 10:45:22 AM 39.2339 -104.0347 251° West 403 464 36,000  Level Denver Center
Thu 10:46:24 AM 39.1908 -104.1964 251° West 414 476 36,000  Level Denver Center
Thu 10:47:26 AM 39.1558 -104.3303 251° West 398 458 36,000  Level Denver Center
Thu 10:48:28 AM 39.1172 -104.4728 251° West 405 466 36,000  Level Denver Center
Thu 10:49:30 AM 39.0806 -104.6072 251° West 415 478 36,000  Level Denver Center
Thu 10:50:32 AM 39.0389 -104.7592 251° West 409 471 36,000  Level Denver Center
Thu 10:51:34 AM 39.0025 -104.8919 251° West 411 473 36,000  Level Denver Center
Thu 10:52:48 AM 38.9597 -105.0469 251° West 414 476 36,000  Level Denver Center
Thu 10:53:50 AM 38.9108 -105.2228 250° West 410 472 36,000  Level Denver Center
Thu 10:54:53 AM 38.8744 -105.3547 251° West 409 471 36,000  Level Denver Center
Thu 10:55:54 AM 38.8325 -105.5089 251° West 410 472 36,000  Level Denver Center
Thu 10:56:56 AM 38.7956 -105.6406 250° West 411 473 36,000  Level Denver Center
Thu 10:57:58 AM 38.7586 -105.7733 250° West 413 475 36,000  Level Denver Center
Thu 10:59:00 AM 38.7136 -105.9278 250° West 414 476 36,000  Level Denver Center
Thu 11:00:02 AM 38.6769 -106.0600 250° West 413 475 36,000  Level Denver Center
Thu 11:01:04 AM 38.6375 -106.1953 250° West 412 474 36,000  Level Denver Center
Thu 11:02:06 AM 38.5969 -106.3347 250° West 414 476 36,000  Level Denver Center
Thu 11:03:09 AM 38.5492 -106.4978 250° West 409 471 36,000  Level Denver Center
Thu 11:04:11 AM 38.5086 -106.6369 250° West 414 476 36,000  Level Denver Center
Thu 11:05:13 AM 38.4669 -106.7767 249° West 417 480 36,000  Level Denver Center
Thu 11:06:15 AM 38.4264 -106.9172 250° West 421 484 36,000 48 Level Denver Center
Thu 11:07:17 AM 38.3850 -107.0586 250° West 423 487 36,100  Climbing Denver Center
Thu 11:08:19 AM 38.3422 -107.2008 249° West 419 482 36,000 -48 Descending Denver Center
Thu 11:09:21 AM 38.2950 -107.3561 249° West 421 484 36,000  Level Denver Center
Thu 11:10:23 AM 38.2544 -107.4894 249° West 421 484 36,000  Level Denver Center
Thu 11:11:25 AM 38.2081 -107.6450 249° West 420 483 36,000  Level Denver Center
Thu 11:12:27 AM 38.1675 -107.7761 249° West 418 481 36,000  Level Denver Center
Thu 11:13:29 AM 38.1208 -107.9314 249° West 420 483 36,000  Level Denver Center
Thu 11:14:43 AM 38.0800 -108.0636 249° West 420 483 36,000  Level Denver Center
Thu 11:15:46 AM 38.0292 -108.2281 249° West 414 476 36,000  Level Denver Center
Thu 11:16:48 AM 37.9811 -108.3828 249° West 420 483 36,000  Level Denver Center
Thu 11:17:50 AM 37.9403 -108.5119 248° West 416 479 36,000  Level Denver Center
Thu 11:18:52 AM 37.8933 -108.6650 249° West 418 481 36,000  Level Denver Center
Thu 11:19:54 AM 37.8517 -108.7967 248° West 420 483 36,000  Level Denver Center
Thu 11:20:56 AM 37.8039 -108.9472 248° West 416 479 36,000  Level Denver Center
Thu 11:21:58 AM 37.7722 -109.0808 253° West 415 478 36,000  Level Denver Center
Thu 11:23:00 AM 37.7328 -109.2358 252° West 415 478 36,000  Level Denver Center
Thu 11:24:02 AM 37.6997 -109.3689 253° West 415 478 36,000  Level Denver Center
Thu 11:25:04 AM 37.6611 -109.5239 253° West 415 478 36,000  Level Denver Center
Thu 11:26:06 AM 37.6275 -109.6558 252° West 413 475 36,000 34 Level Denver Center
Thu 11:28:00 AM 37.5561 -109.9250 252° West 416 479 36,100  Climbing Los Angeles Center
Thu 11:28:23 AM 37.5489 -109.9653 257° West 415 478 36,000 -62 Descending Denver Center
Thu 11:29:37 AM 37.5097 -110.1203 252° West 416 479 36,000 -41 Level Denver Center
Thu 11:30:51 AM 37.4675 -110.2844 252° West 415 478 35,900 -526 Descending Denver Center
Thu 11:31:54 AM 37.4236 -110.4475 251° West 411 473 34,800 -1,008 Descending Denver Center
Thu 11:32:56 AM 37.3883 -110.5872 252° West 417 480 33,800 -1,016 Descending Denver Center
Thu 11:33:58 AM 37.3433 -110.7539 251° West 419 482 32,700 -871 Descending Denver Center
Thu 11:35:00 AM 37.3069 -110.8925 252° West 419 482 32,000 -339 Descending Denver Center
Thu 11:36:02 AM 37.2692 -111.0339 251° West 426 490 32,000  Level Denver Center
Thu 11:37:04 AM 37.2319 -111.1725 251° West 422 486 32,000  Level Denver Center
Thu 11:38:05 AM 37.2022 -111.2847 252° West 424 488 32,000  Level Denver Center
Thu 11:39:08 AM 37.1567 -111.4531 251° West 425 489 32,000  Level Denver Center
Thu 11:41:25 AM 37.0658 -111.7872 251° West 422 486 32,000  Level Denver Center
Thu 11:42:27 AM 37.0294 -111.9275 252° West 424 488 32,000  Level Denver Center
Thu 11:43:29 AM 36.9964 -112.0694 254° West 424 488 32,000  Level Denver Center
Thu 11:44:34 AM 36.9636 -112.2089 254° West 422 486 32,000 -236 Level Los Angeles Center
Thu 11:45:36 AM 36.9222 -112.3783 253° West 424 488 31,500 -726 Descending Los Angeles Center
Thu 11:46:38 AM 36.8881 -112.5189 253° West 423 487 30,500 -968 Descending Los Angeles Center
Thu 11:47:40 AM 36.8531 -112.6619 253° West 428 493 29,500 -968 Descending Los Angeles Center
Thu 11:48:42 AM 36.8192 -112.8028 253° West 425 489 28,500 -968 Descending Los Angeles Center
Thu 11:49:44 AM 36.7853 -112.9406 253° West 418 481 27,500 -968 Descending Los Angeles Center
Thu 11:50:46 AM 36.7525 -113.0767 253° West 412 474 26,500 -1,016 Descending Los Angeles Center
Thu 11:51:48 AM 36.7128 -113.2356 253° West 402 463 25,400 -1,016 Descending Los Angeles Center
Thu 11:52:50 AM 36.6803 -113.3667 253° West 398 458 24,400 -672 Descending Los Angeles Center
Thu 11:53:53 AM 36.6486 -113.4931 253° West 387 445 24,000 -192 Descending Los Angeles Center
Thu 11:54:55 AM 36.6172 -113.6183 253° West 382 440 24,000 -194 Level Los Angeles Center
Thu 11:55:57 AM 36.5839 -113.7447 252° West 384 442 23,600 -976 Descending Los Angeles Center
Thu 11:56:58 AM 36.5589 -113.8436 253° West 379 436 22,000 -2,274 Descending Los Angeles Center
Thu 11:58:01 AM 36.5147 -114.0183 253° West 378 435 18,900 -2,592 Descending Los Angeles Center
Thu 11:59:03 AM 36.4836 -114.1386 252° West 367 422 16,600 -2,177 Descending Los Angeles Center
Thu 12:00:05 PM 36.4525 -114.2561 252° West 359 413 14,400 -1,934 Descending Los Angeles Center
Thu 12:01:04 PM 36.4247 -114.3758 254° West 345 397 12,700 -1,222 Descending Los Angeles Center
Thu 12:01:53 PM 36.4000 -114.4592 250° West 309 356 12,200 -291 Descending Los Angeles Center
Thu 12:03:00 PM 36.2740 -114.5000 180° South  Level FlightAware Approximate
Thu 12:03:49 PM 36.2561 -114.4922 180° South 277 319 11,900  Level Los Angeles Center
Thu 12:04:14 PM 36.2361 -114.4886 172° South 284 327 11,700 -985 Descending Los Angeles Center
Thu 12:04:56 PM 36.1825 -114.4931 184° South 249 287 10,800 -984 Descending Los Angeles Center
Thu 12:05:15 PM 36.1689 -114.4892 167° South 255 293 10,700 -1,164 Descending Los Angeles Center
Thu 12:06:03 PM 36.1106 -114.5094 196° South 242 278 9,500 -1,429 Descending Los Angeles Center
Thu 12:06:18 PM 36.1025 -114.5225 233° Southwest 243 280 9,200 -1,082 Descending Los Angeles Center
Thu 12:07:04 PM 36.0953 -114.5867 262° West 237 273 8,400 -968 Descending Los Angeles Center
Thu 12:07:20 PM 36.0911 -114.6022 252° West 239 275 8,200 -393 Descending Los Angeles Center
Thu 12:08:05 PM 36.0831 -114.6681 261° West 231 266 8,000 -97 Descending Los Angeles Center
Thu 12:08:22 PM 36.0806 -114.6800 255° West 231 266 8,100  Climbing Los Angeles Center
Thu 12:08:54 PM 36.0750 -114.7294 262° West 231 266 8,000 -290 Descending Los Angeles Center
Thu 12:09:24 PM 36.0714 -114.7586 261° West 231 266 7,800 -985 Descending Los Angeles Center
Thu 12:10:01 PM 36.0736 -114.8203 273° West 242 278 6,900 -1,238 Descending Los Angeles Center
Thu 12:10:27 PM 36.0719 -114.8400 264° West 235 270 6,500 -1,343 Descending Los Angeles Center
Thu 12:11:08 PM 36.0744 -114.9133 272° West 233 268 5,400 -1,452 Descending Los Angeles Center
Thu 12:11:29 PM 36.0725 -114.9375 264° West 236 272 5,000 -1,200 Descending Los Angeles Center
Thu 12:12:03 PM 36.0744 -114.9825 273° West 220 253 4,300 -1,065 Descending Los Angeles Center
Thu 12:12:31 PM 36.0733 -115.0103 267° West 227 261 3,900 -984 Descending Los Angeles Center
Thu 12:13:04 PM 36.0739 -115.0492 271° West 192 221 3,300 -894 Descending Los Angeles Center
Thu 12:14:05 PM 36.0728 -115.1028 269° West 148 170 2,500 -787 Descending Los Angeles Center

Login

Don't have an account? Register now (free) for customized features, flight alerts, and more!